sensor_id;sensor_type;location;lat;lon;timestamp;temperature;humidity
59301;DHT22;45073;52.740;6.784;2023-04-25T00:01:36;7.90;99.90
59301;DHT22;45073;52.740;6.784;2023-04-25T00:04:03;7.90;99.90
59301;DHT22;45073;52.740;6.784;2023-04-25T00:06:31;7.80;99.90
59301;DHT22;45073;52.740;6.784;2023-04-25T00:08:57;7.80;99.90
59301;DHT22;45073;52.740;6.784;2023-04-25T00:11:23;7.80;99.90
59301;DHT22;45073;52.740;6.784;2023-04-25T00:13:49;7.80;99.90
59301;DHT22;45073;52.740;6.784;2023-04-25T00:16:16;7.80;99.90
59301;DHT22;45073;52.740;6.784;2023-04-25T00:18:42;7.80;99.90
59301;DHT22;45073;52.740;6.784;2023-04-25T00:21:08;7.80;99.90
59301;DHT22;45073;52.740;6.784;2023-04-25T00:23:34;7.80;99.90
59301;DHT22;45073;52.740;6.784;2023-04-25T00:26:02;7.70;99.90
59301;DHT22;45073;52.740;6.784;2023-04-25T00:28:27;7.70;99.90
59301;DHT22;45073;52.740;6.784;2023-04-25T00:30:53;7.70;99.90
59301;DHT22;45073;52.740;6.784;2023-04-25T00:33:18;7.70;99.90
59301;DHT22;45073;52.740;6.784;2023-04-25T00:35:44;7.60;99.90
59301;DHT22;45073;52.740;6.784;2023-04-25T00:38:10;7.60;99.90
59301;DHT22;45073;52.740;6.784;2023-04-25T00:40:35;7.50;99.90
59301;DHT22;45073;52.740;6.784;2023-04-25T00:43:01;7.50;99.90
59301;DHT22;45073;52.740;6.784;2023-04-25T00:45:30;7.50;99.90
59301;DHT22;45073;52.740;6.784;2023-04-25T00:47:56;7.40;99.90
59301;DHT22;45073;52.740;6.784;2023-04-25T00:50:22;7.30;99.90
59301;DHT22;45073;52.740;6.784;2023-04-25T00:52:51;7.30;99.90
59301;DHT22;45073;52.740;6.784;2023-04-25T00:55:17;7.30;99.90
59301;DHT22;45073;52.740;6.784;2023-04-25T00:57:43;7.20;99.90
59301;DHT22;45073;52.740;6.784;2023-04-25T01:00:09;7.20;99.90
59301;DHT22;45073;52.740;6.784;2023-04-25T01:02:36;7.20;99.90
59301;DHT22;45073;52.740;6.784;2023-04-25T01:05:02;7.10;99.90
59301;DHT22;45073;52.740;6.784;2023-04-25T01:07:29;7.10;99.90
59301;DHT22;45073;52.740;6.784;2023-04-25T01:09:54;7.10;99.90
59301;DHT22;45073;52.740;6.784;2023-04-25T01:12:20;7.00;99.90
59301;DHT22;45073;52.740;6.784;2023-04-25T01:14:46;7.00;99.90
59301;DHT22;45073;52.740;6.784;2023-04-25T01:17:12;7.00;99.90
59301;DHT22;45073;52.740;6.784;2023-04-25T01:19:38;7.00;99.90
59301;DHT22;45073;52.740;6.784;2023-04-25T01:22:05;7.00;99.90
59301;DHT22;45073;52.740;6.784;2023-04-25T01:24:34;7.00;99.90
59301;DHT22;45073;52.740;6.784;2023-04-25T01:27:00;7.00;99.90
59301;DHT22;45073;52.740;6.784;2023-04-25T01:29:27;7.00;99.90
59301;DHT22;45073;52.740;6.784;2023-04-25T01:31:52;7.00;99.90
59301;DHT22;45073;52.740;6.784;2023-04-25T01:34:19;7.00;99.90
59301;DHT22;45073;52.740;6.784;2023-04-25T01:36:45;6.90;99.90
59301;DHT22;45073;52.740;6.784;2023-04-25T01:39:11;6.90;99.90
59301;DHT22;45073;52.740;6.784;2023-04-25T01:41:37;6.90;99.90
59301;DHT22;45073;52.740;6.784;2023-04-25T01:44:03;6.90;99.90
59301;DHT22;45073;52.740;6.784;2023-04-25T01:46:28;6.90;99.90
59301;DHT22;45073;52.740;6.784;2023-04-25T01:48:54;6.80;99.90
59301;DHT22;45073;52.740;6.784;2023-04-25T01:51:20;6.80;99.90
59301;DHT22;45073;52.740;6.784;2023-04-25T01:53:45;6.80;99.90
59301;DHT22;45073;52.740;6.784;2023-04-25T01:56:11;6.70;99.90
59301;DHT22;45073;52.740;6.784;2023-04-25T01:58:37;6.70;99.90
59301;DHT22;45073;52.740;6.784;2023-04-25T02:01:02;6.70;99.90
59301;DHT22;45073;52.740;6.784;2023-04-25T02:03:30;6.60;99.90
59301;DHT22;45073;52.740;6.784;2023-04-25T02:05:56;6.60;99.90
59301;DHT22;45073;52.740;6.784;2023-04-25T02:08:22;6.60;99.90
59301;DHT22;45073;52.740;6.784;2023-04-25T02:10:47;6.60;99.90
59301;DHT22;45073;52.740;6.784;2023-04-25T02:13:13;6.50;99.90
59301;DHT22;45073;52.740;6.784;2023-04-25T02:15:39;6.50;99.90
59301;DHT22;45073;52.740;6.784;2023-04-25T02:18:04;6.50;99.90
59301;DHT22;45073;52.740;6.784;2023-04-25T02:20:31;6.50;99.90
59301;DHT22;45073;52.740;6.784;2023-04-25T02:22:57;6.50;99.90
59301;DHT22;45073;52.740;6.784;2023-04-25T02:25:23;6.50;99.90
59301;DHT22;45073;52.740;6.784;2023-04-25T02:27:48;6.50;99.90
59301;DHT22;45073;52.740;6.784;2023-04-25T02:30:14;6.50;99.90
59301;DHT22;45073;52.740;6.784;2023-04-25T02:32:40;6.50;99.90
59301;DHT22;45073;52.740;6.784;2023-04-25T02:35:06;6.50;99.90
59301;DHT22;45073;52.740;6.784;2023-04-25T02:37:34;6.40;99.90
59301;DHT22;45073;52.740;6.784;2023-04-25T02:40:00;6.40;99.90
59301;DHT22;45073;52.740;6.784;2023-04-25T02:42:26;6.40;99.90
59301;DHT22;45073;52.740;6.784;2023-04-25T02:44:52;6.40;99.90
59301;DHT22;45073;52.740;6.784;2023-04-25T02:47:18;6.40;99.90
59301;DHT22;45073;52.740;6.784;2023-04-25T02:49:44;6.40;99.90
59301;DHT22;45073;52.740;6.784;2023-04-25T02:52:10;6.40;99.90
59301;DHT22;45073;52.740;6.784;2023-04-25T02:54:36;6.40;99.90
59301;DHT22;45073;52.740;6.784;2023-04-25T02:57:02;6.40;99.90
59301;DHT22;45073;52.740;6.784;2023-04-25T02:59:28;6.40;99.90
59301;DHT22;45073;52.740;6.784;2023-04-25T03:01:53;6.40;99.90
59301;DHT22;45073;52.740;6.784;2023-04-25T03:04:19;6.40;99.90
59301;DHT22;45073;52.740;6.784;2023-04-25T03:06:46;6.40;99.90
59301;DHT22;45073;52.740;6.784;2023-04-25T03:09:12;6.40;99.90
59301;DHT22;45073;52.740;6.784;2023-04-25T03:11:38;6.40;99.90
59301;DHT22;45073;52.740;6.784;2023-04-25T03:14:04;6.40;99.90
59301;DHT22;45073;52.740;6.784;2023-04-25T03:16:30;6.40;99.90
59301;DHT22;45073;52.740;6.784;2023-04-25T03:18:56;6.40;99.90
59301;DHT22;45073;52.740;6.784;2023-04-25T03:21:22;6.40;99.90
59301;DHT22;45073;52.740;6.784;2023-04-25T03:23:47;6.40;99.90
59301;DHT22;45073;52.740;6.784;2023-04-25T03:26:13;6.40;99.90
59301;DHT22;45073;52.740;6.784;2023-04-25T03:28:39;6.40;99.90
59301;DHT22;45073;52.740;6.784;2023-04-25T03:31:05;6.40;99.90
59301;DHT22;45073;52.740;6.784;2023-04-25T03:33:31;6.40;99.90
59301;DHT22;45073;52.740;6.784;2023-04-25T03:35:57;6.40;99.90
59301;DHT22;45073;52.740;6.784;2023-04-25T03:38:22;6.30;99.90
59301;DHT22;45073;52.740;6.784;2023-04-25T03:40:49;6.40;99.90
59301;DHT22;45073;52.740;6.784;2023-04-25T03:43:16;6.30;99.90
59301;DHT22;45073;52.740;6.784;2023-04-25T03:45:41;6.30;99.90
59301;DHT22;45073;52.740;6.784;2023-04-25T03:48:07;6.30;99.90
59301;DHT22;45073;52.740;6.784;2023-04-25T03:50:33;6.30;99.90
59301;DHT22;45073;52.740;6.784;2023-04-25T03:52:58;6.30;99.90
59301;DHT22;45073;52.740;6.784;2023-04-25T03:55:24;6.30;99.90
59301;DHT22;45073;52.740;6.784;2023-04-25T03:57:50;6.30;99.90
59301;DHT22;45073;52.740;6.784;2023-04-25T04:00:15;6.30;99.90
59301;DHT22;45073;52.740;6.784;2023-04-25T04:02:41;6.30;99.90
59301;DHT22;45073;52.740;6.784;2023-04-25T04:05:07;6.40;99.90
59301;DHT22;45073;52.740;6.784;2023-04-25T04:07:32;6.40;99.90
59301;DHT22;45073;52.740;6.784;2023-04-25T04:09:59;6.40;99.90
59301;DHT22;45073;52.740;6.784;2023-04-25T04:12:24;6.40;99.90
59301;DHT22;45073;52.740;6.784;2023-04-25T04:14:50;6.40;99.90
59301;DHT22;45073;52.740;6.784;2023-04-25T04:17:16;6.40;99.90
59301;DHT22;45073;52.740;6.784;2023-04-25T04:19:41;6.30;99.90
59301;DHT22;45073;52.740;6.784;2023-04-25T04:22:07;6.40;99.90
59301;DHT22;45073;52.740;6.784;2023-04-25T04:24:32;6.40;99.90
59301;DHT22;45073;52.740;6.784;2023-04-25T04:26:58;6.40;99.90
59301;DHT22;45073;52.740;6.784;2023-04-25T04:29:24;6.30;99.90
59301;DHT22;45073;52.740;6.784;2023-04-25T04:31:51;6.30;99.90
59301;DHT22;45073;52.740;6.784;2023-04-25T04:34:18;6.30;99.90
59301;DHT22;45073;52.740;6.784;2023-04-25T04:36:44;6.30;99.90
59301;DHT22;45073;52.740;6.784;2023-04-25T04:39:12;6.30;99.90
59301;DHT22;45073;52.740;6.784;2023-04-25T04:41:38;6.30;99.90
59301;DHT22;45073;52.740;6.784;2023-04-25T04:44:05;6.30;99.90
59301;DHT22;45073;52.740;6.784;2023-04-25T04:46:32;6.30;99.90
59301;DHT22;45073;52.740;6.784;2023-04-25T04:49:04;6.30;99.90
59301;DHT22;45073;52.740;6.784;2023-04-25T04:51:30;6.20;99.90
59301;DHT22;45073;52.740;6.784;2023-04-25T04:53:56;6.20;99.90
59301;DHT22;45073;52.740;6.784;2023-04-25T04:56:24;6.20;99.90
59301;DHT22;45073;52.740;6.784;2023-04-25T04:58:51;6.10;99.90
59301;DHT22;45073;52.740;6.784;2023-04-25T05:01:17;6.20;99.90
59301;DHT22;45073;52.740;6.784;2023-04-25T05:03:43;6.20;99.90
59301;DHT22;45073;52.740;6.784;2023-04-25T05:06:09;6.20;99.90
59301;DHT22;45073;52.740;6.784;2023-04-25T05:08:35;6.20;99.90
59301;DHT22;45073;52.740;6.784;2023-04-25T05:11:01;6.20;99.90
59301;DHT22;45073;52.740;6.784;2023-04-25T05:13:27;6.20;99.90
59301;DHT22;45073;52.740;6.784;2023-04-25T05:15:52;6.30;99.90
59301;DHT22;45073;52.740;6.784;2023-04-25T05:18:18;6.20;99.90
59301;DHT22;45073;52.740;6.784;2023-04-25T05:20:44;6.30;99.90
59301;DHT22;45073;52.740;6.784;2023-04-25T05:23:09;6.30;99.90
59301;DHT22;45073;52.740;6.784;2023-04-25T05:25:35;6.30;99.90
59301;DHT22;45073;52.740;6.784;2023-04-25T05:28:01;6.20;99.90
59301;DHT22;45073;52.740;6.784;2023-04-25T05:30:26;6.30;99.90
59301;DHT22;45073;52.740;6.784;2023-04-25T05:32:52;6.30;99.90
59301;DHT22;45073;52.740;6.784;2023-04-25T05:35:17;6.30;99.90
59301;DHT22;45073;52.740;6.784;2023-04-25T05:37:43;6.40;99.90
59301;DHT22;45073;52.740;6.784;2023-04-25T05:40:09;6.40;99.90
59301;DHT22;45073;52.740;6.784;2023-04-25T05:42:35;6.40;99.90
59301;DHT22;45073;52.740;6.784;2023-04-25T05:45:00;6.40;99.90
59301;DHT22;45073;52.740;6.784;2023-04-25T05:47:26;6.50;99.90
59301;DHT22;45073;52.740;6.784;2023-04-25T05:49:52;6.50;99.90
59301;DHT22;45073;52.740;6.784;2023-04-25T05:52:17;6.60;99.90
59301;DHT22;45073;52.740;6.784;2023-04-25T05:54:43;6.60;99.90
59301;DHT22;45073;52.740;6.784;2023-04-25T05:57:08;6.60;99.90
59301;DHT22;45073;52.740;6.784;2023-04-25T05:59:34;6.60;99.90
59301;DHT22;45073;52.740;6.784;2023-04-25T06:02:00;6.70;99.90
59301;DHT22;45073;52.740;6.784;2023-04-25T06:04:26;6.70;99.90
59301;DHT22;45073;52.740;6.784;2023-04-25T06:06:51;6.70;99.90
59301;DHT22;45073;52.740;6.784;2023-04-25T06:09:17;6.80;99.90
59301;DHT22;45073;52.740;6.784;2023-04-25T06:11:42;6.90;99.90
59301;DHT22;45073;52.740;6.784;2023-04-25T06:14:08;7.00;99.90
59301;DHT22;45073;52.740;6.784;2023-04-25T06:16:34;7.10;99.90
59301;DHT22;45073;52.740;6.784;2023-04-25T06:18:59;7.20;99.90
59301;DHT22;45073;52.740;6.784;2023-04-25T06:21:25;7.20;99.90
59301;DHT22;45073;52.740;6.784;2023-04-25T06:23:51;7.20;99.90
59301;DHT22;45073;52.740;6.784;2023-04-25T06:26:16;7.20;99.90
59301;DHT22;45073;52.740;6.784;2023-04-25T06:28:42;7.20;99.90
59301;DHT22;45073;52.740;6.784;2023-04-25T06:31:07;7.20;99.90
59301;DHT22;45073;52.740;6.784;2023-04-25T06:33:33;7.30;99.90
59301;DHT22;45073;52.740;6.784;2023-04-25T06:35:59;7.30;99.90
59301;DHT22;45073;52.740;6.784;2023-04-25T06:38:24;7.30;99.90
59301;DHT22;45073;52.740;6.784;2023-04-25T06:40:50;7.40;99.90
59301;DHT22;45073;52.740;6.784;2023-04-25T06:43:16;7.40;99.90
59301;DHT22;45073;52.740;6.784;2023-04-25T06:45:42;7.40;99.90
59301;DHT22;45073;52.740;6.784;2023-04-25T06:48:07;7.40;99.90
59301;DHT22;45073;52.740;6.784;2023-04-25T06:50:34;7.50;99.90
59301;DHT22;45073;52.740;6.784;2023-04-25T06:52:59;7.50;99.90
59301;DHT22;45073;52.740;6.784;2023-04-25T06:55:27;7.50;99.90
59301;DHT22;45073;52.740;6.784;2023-04-25T06:57:52;7.50;99.90
59301;DHT22;45073;52.740;6.784;2023-04-25T07:00:18;7.50;99.90
59301;DHT22;45073;52.740;6.784;2023-04-25T07:02:44;7.50;99.90
59301;DHT22;45073;52.740;6.784;2023-04-25T07:05:10;7.60;99.90
59301;DHT22;45073;52.740;6.784;2023-04-25T07:07:35;7.60;99.90
59301;DHT22;45073;52.740;6.784;2023-04-25T07:10:01;7.70;99.90
59301;DHT22;45073;52.740;6.784;2023-04-25T07:12:27;7.80;99.90
59301;DHT22;45073;52.740;6.784;2023-04-25T07:14:52;7.90;99.90
59301;DHT22;45073;52.740;6.784;2023-04-25T07:17:18;8.00;99.90
59301;DHT22;45073;52.740;6.784;2023-04-25T07:19:43;8.10;99.90
59301;DHT22;45073;52.740;6.784;2023-04-25T07:22:10;8.20;99.90
59301;DHT22;45073;52.740;6.784;2023-04-25T07:24:35;8.30;99.90
59301;DHT22;45073;52.740;6.784;2023-04-25T07:27:01;8.40;99.90
59301;DHT22;45073;52.740;6.784;2023-04-25T07:29:27;8.50;99.90
59301;DHT22;45073;52.740;6.784;2023-04-25T07:31:53;8.60;99.90
59301;DHT22;45073;52.740;6.784;2023-04-25T07:34:19;8.70;99.90
59301;DHT22;45073;52.740;6.784;2023-04-25T07:36:45;8.80;99.90
59301;DHT22;45073;52.740;6.784;2023-04-25T07:39:11;8.90;99.90
59301;DHT22;45073;52.740;6.784;2023-04-25T07:41:36;8.90;99.90
59301;DHT22;45073;52.740;6.784;2023-04-25T07:44:02;8.90;99.90
59301;DHT22;45073;52.740;6.784;2023-04-25T07:46:28;9.00;99.90
59301;DHT22;45073;52.740;6.784;2023-04-25T07:48:53;9.00;99.90
59301;DHT22;45073;52.740;6.784;2023-04-25T07:51:19;9.10;99.90
59301;DHT22;45073;52.740;6.784;2023-04-25T07:53:45;9.10;99.90
59301;DHT22;45073;52.740;6.784;2023-04-25T07:56:11;9.20;99.90
59301;DHT22;45073;52.740;6.784;2023-04-25T07:58:37;9.10;99.90
59301;DHT22;45073;52.740;6.784;2023-04-25T08:01:03;9.10;99.90
59301;DHT22;45073;52.740;6.784;2023-04-25T08:03:28;9.10;99.90
59301;DHT22;45073;52.740;6.784;2023-04-25T08:05:54;9.20;99.90
59301;DHT22;45073;52.740;6.784;2023-04-25T08:08:20;9.20;99.90
59301;DHT22;45073;52.740;6.784;2023-04-25T08:10:45;9.20;99.90
59301;DHT22;45073;52.740;6.784;2023-04-25T08:13:13;9.30;99.90
59301;DHT22;45073;52.740;6.784;2023-04-25T08:15:39;9.40;99.90
59301;DHT22;45073;52.740;6.784;2023-04-25T08:18:04;9.40;99.90
59301;DHT22;45073;52.740;6.784;2023-04-25T08:20:30;9.50;99.90
59301;DHT22;45073;52.740;6.784;2023-04-25T08:22:56;9.70;99.90
59301;DHT22;45073;52.740;6.784;2023-04-25T08:25:21;9.80;99.90
59301;DHT22;45073;52.740;6.784;2023-04-25T08:27:47;9.90;99.90
59301;DHT22;45073;52.740;6.784;2023-04-25T08:30:13;9.90;99.90
59301;DHT22;45073;52.740;6.784;2023-04-25T08:32:39;10.10;99.90
59301;DHT22;45073;52.740;6.784;2023-04-25T08:35:04;10.20;99.90
59301;DHT22;45073;52.740;6.784;2023-04-25T08:37:31;10.30;99.90
59301;DHT22;45073;52.740;6.784;2023-04-25T08:39:56;10.30;99.90
59301;DHT22;45073;52.740;6.784;2023-04-25T08:42:22;10.30;99.90
59301;DHT22;45073;52.740;6.784;2023-04-25T08:44:49;10.20;99.90
59301;DHT22;45073;52.740;6.784;2023-04-25T08:47:15;10.20;99.90
59301;DHT22;45073;52.740;6.784;2023-04-25T08:49:45;10.10;99.90
59301;DHT22;45073;52.740;6.784;2023-04-25T08:52:13;10.20;99.90
59301;DHT22;45073;52.740;6.784;2023-04-25T08:54:42;10.30;99.90
59301;DHT22;45073;52.740;6.784;2023-04-25T08:57:09;10.40;99.90
59301;DHT22;45073;52.740;6.784;2023-04-25T08:59:35;10.50;99.90
59301;DHT22;45073;52.740;6.784;2023-04-25T09:02:03;10.60;99.90
59301;DHT22;45073;52.740;6.784;2023-04-25T09:04:32;10.70;99.90
59301;DHT22;45073;52.740;6.784;2023-04-25T09:06:57;10.80;99.30
59301;DHT22;45073;52.740;6.784;2023-04-25T09:09:24;10.90;98.30
59301;DHT22;45073;52.740;6.784;2023-04-25T09:11:49;10.90;98.10
59301;DHT22;45073;52.740;6.784;2023-04-25T09:14:20;11.00;96.40
59301;DHT22;45073;52.740;6.784;2023-04-25T09:19:22;10.90;93.00
59301;DHT22;45073;52.740;6.784;2023-04-25T09:21:55;10.90;95.10
59301;DHT22;45073;52.740;6.784;2023-04-25T09:28:24;10.60;93.50
59301;DHT22;45073;52.740;6.784;2023-04-25T09:34:53;10.30;95.70
59301;DHT22;45073;52.740;6.784;2023-04-25T09:38:06;10.40;96.40
59301;DHT22;45073;52.740;6.784;2023-04-25T09:43:56;10.90;96.90
59301;DHT22;45073;52.740;6.784;2023-04-25T09:49:43;11.00;95.50
59301;DHT22;45073;52.740;6.784;2023-04-25T10:05:44;9.30;99.90
59301;DHT22;45073;52.740;6.784;2023-04-25T10:11:54;9.20;99.90
59301;DHT22;45073;52.740;6.784;2023-04-25T10:14:38;9.10;99.90
59301;DHT22;45073;52.740;6.784;2023-04-25T10:20:28;9.00;99.90
59301;DHT22;45073;52.740;6.784;2023-04-25T10:32:42;10.30;99.90
59301;DHT22;45073;52.740;6.784;2023-04-25T10:35:36;10.70;99.90
59301;DHT22;45073;52.740;6.784;2023-04-25T10:38:58;10.80;99.90
59301;DHT22;45073;52.740;6.784;2023-04-25T10:48:35;10.50;99.90
59301;DHT22;45073;52.740;6.784;2023-04-25T10:55:02;10.20;99.90
59301;DHT22;45073;52.740;6.784;2023-04-25T10:58:06;10.00;99.90
59301;DHT22;45073;52.740;6.784;2023-04-25T11:01:09;10.10;99.90
59301;DHT22;45073;52.740;6.784;2023-04-25T11:11:30;10.30;99.90
59301;DHT22;45073;52.740;6.784;2023-04-25T11:20:58;10.10;96.80
59301;DHT22;45073;52.740;6.784;2023-04-25T11:23:24;9.90;98.30
59301;DHT22;45073;52.740;6.784;2023-04-25T11:25:52;9.90;99.90
59301;DHT22;45073;52.740;6.784;2023-04-25T11:28:21;10.00;99.90
59301;DHT22;45073;52.740;6.784;2023-04-25T11:30:50;10.10;99.90
59301;DHT22;45073;52.740;6.784;2023-04-25T11:33:16;10.20;99.90
59301;DHT22;45073;52.740;6.784;2023-04-25T11:35:42;10.30;99.90
59301;DHT22;45073;52.740;6.784;2023-04-25T11:38:07;10.60;99.90
59301;DHT22;45073;52.740;6.784;2023-04-25T11:40:35;10.80;99.90
59301;DHT22;45073;52.740;6.784;2023-04-25T11:43:01;11.20;99.90
59301;DHT22;45073;52.740;6.784;2023-04-25T11:45:27;11.50;99.90
59301;DHT22;45073;52.740;6.784;2023-04-25T11:47:54;11.90;99.90
59301;DHT22;45073;52.740;6.784;2023-04-25T11:50:20;12.30;99.90
59301;DHT22;45073;52.740;6.784;2023-04-25T11:52:47;12.60;99.90
59301;DHT22;45073;52.740;6.784;2023-04-25T11:57:41;12.50;94.80
59301;DHT22;45073;52.740;6.784;2023-04-25T12:00:07;12.40;91.90
59301;DHT22;45073;52.740;6.784;2023-04-25T12:02:35;12.30;91.10
59301;DHT22;45073;52.740;6.784;2023-04-25T12:05:01;12.20;91.40
59301;DHT22;45073;52.740;6.784;2023-04-25T12:07:31;12.20;90.60
59301;DHT22;45073;52.740;6.784;2023-04-25T12:09:57;12.20;90.10
59301;DHT22;45073;52.740;6.784;2023-04-25T12:12:27;12.10;89.80
59301;DHT22;45073;52.740;6.784;2023-04-25T12:14:53;11.90;87.30
59301;DHT22;45073;52.740;6.784;2023-04-25T12:17:21;11.80;88.50
59301;DHT22;45073;52.740;6.784;2023-04-25T12:19:48;11.60;86.20
59301;DHT22;45073;52.740;6.784;2023-04-25T12:22:21;11.50;85.50
59301;DHT22;45073;52.740;6.784;2023-04-25T12:24:47;11.40;85.90
59301;DHT22;45073;52.740;6.784;2023-04-25T12:27:15;11.40;86.30
59301;DHT22;45073;52.740;6.784;2023-04-25T12:29:54;11.50;86.70
59301;DHT22;45073;52.740;6.784;2023-04-25T12:32:21;11.80;88.00
59301;DHT22;45073;52.740;6.784;2023-04-25T12:34:46;11.80;85.60
59301;DHT22;45073;52.740;6.784;2023-04-25T12:37:12;12.00;85.70
59301;DHT22;45073;52.740;6.784;2023-04-25T12:39:38;12.30;85.20
59301;DHT22;45073;52.740;6.784;2023-04-25T12:42:04;12.70;85.60
59301;DHT22;45073;52.740;6.784;2023-04-25T12:44:29;12.90;85.20
59301;DHT22;45073;52.740;6.784;2023-04-25T12:46:55;13.00;81.70
59301;DHT22;45073;52.740;6.784;2023-04-25T12:49:20;13.00;80.00
59301;DHT22;45073;52.740;6.784;2023-04-25T12:51:46;13.20;79.70
59301;DHT22;45073;52.740;6.784;2023-04-25T12:54:12;13.50;80.20
59301;DHT22;45073;52.740;6.784;2023-04-25T12:56:41;13.80;78.80
59301;DHT22;45073;52.740;6.784;2023-04-25T12:59:07;13.90;77.40
59301;DHT22;45073;52.740;6.784;2023-04-25T13:01:33;14.10;76.60
59301;DHT22;45073;52.740;6.784;2023-04-25T13:03:58;14.20;76.00
59301;DHT22;45073;52.740;6.784;2023-04-25T13:06:24;14.40;72.90
59301;DHT22;45073;52.740;6.784;2023-04-25T13:08:49;14.50;73.30
59301;DHT22;45073;52.740;6.784;2023-04-25T13:11:15;14.50;73.50
59301;DHT22;45073;52.740;6.784;2023-04-25T13:13:41;14.40;73.80
59301;DHT22;45073;52.740;6.784;2023-04-25T13:16:07;14.40;74.00
59301;DHT22;45073;52.740;6.784;2023-04-25T13:18:34;14.30;73.20
59301;DHT22;45073;52.740;6.784;2023-04-25T13:21:00;14.20;74.00
59301;DHT22;45073;52.740;6.784;2023-04-25T13:23:26;13.90;74.50
59301;DHT22;45073;52.740;6.784;2023-04-25T13:25:52;13.70;73.70
59301;DHT22;45073;52.740;6.784;2023-04-25T13:28:18;13.70;72.60
59301;DHT22;45073;52.740;6.784;2023-04-25T13:30:44;13.80;74.10
59301;DHT22;45073;52.740;6.784;2023-04-25T13:33:10;14.10;75.10
59301;DHT22;45073;52.740;6.784;2023-04-25T13:35:37;14.50;75.10
59301;DHT22;45073;52.740;6.784;2023-04-25T13:38:03;14.60;73.80
59301;DHT22;45073;52.740;6.784;2023-04-25T13:40:29;14.60;71.50
59301;DHT22;45073;52.740;6.784;2023-04-25T13:42:56;14.40;70.80
59301;DHT22;45073;52.740;6.784;2023-04-25T13:45:21;14.20;72.10
59301;DHT22;45073;52.740;6.784;2023-04-25T13:47:47;13.90;70.10
59301;DHT22;45073;52.740;6.784;2023-04-25T13:50:13;13.60;71.00
59301;DHT22;45073;52.740;6.784;2023-04-25T13:52:39;13.30;71.90
59301;DHT22;45073;52.740;6.784;2023-04-25T13:55:06;13.10;73.10
59301;DHT22;45073;52.740;6.784;2023-04-25T13:57:33;13.10;73.50
59301;DHT22;45073;52.740;6.784;2023-04-25T13:59:59;12.90;73.30
59301;DHT22;45073;52.740;6.784;2023-04-25T14:02:25;13.00;73.30
59301;DHT22;45073;52.740;6.784;2023-04-25T14:04:51;13.30;73.00
59301;DHT22;45073;52.740;6.784;2023-04-25T14:07:17;13.60;73.40
59301;DHT22;45073;52.740;6.784;2023-04-25T14:09:44;13.70;72.50
59301;DHT22;45073;52.740;6.784;2023-04-25T14:12:10;13.60;71.80
59301;DHT22;45073;52.740;6.784;2023-04-25T14:14:36;13.60;72.70
59301;DHT22;45073;52.740;6.784;2023-04-25T14:17:03;13.30;72.80
59301;DHT22;45073;52.740;6.784;2023-04-25T14:19:29;13.30;73.40
59301;DHT22;45073;52.740;6.784;2023-04-25T14:21:55;13.30;73.40
59301;DHT22;45073;52.740;6.784;2023-04-25T14:24:21;13.50;73.40
59301;DHT22;45073;52.740;6.784;2023-04-25T14:26:46;13.90;72.70
59301;DHT22;45073;52.740;6.784;2023-04-25T14:29:12;14.20;71.70
59301;DHT22;45073;52.740;6.784;2023-04-25T14:31:38;14.50;70.50
59301;DHT22;45073;52.740;6.784;2023-04-25T14:34:04;14.70;69.50
59301;DHT22;45073;52.740;6.784;2023-04-25T14:36:31;14.60;69.70
59301;DHT22;45073;52.740;6.784;2023-04-25T14:38:58;14.40;70.50
59301;DHT22;45073;52.740;6.784;2023-04-25T14:41:24;14.10;68.70
59301;DHT22;45073;52.740;6.784;2023-04-25T14:43:50;13.90;67.50
59301;DHT22;45073;52.740;6.784;2023-04-25T14:46:16;13.50;67.30
59301;DHT22;45073;52.740;6.784;2023-04-25T14:48:42;13.30;68.10
59301;DHT22;45073;52.740;6.784;2023-04-25T14:51:07;13.20;67.70
59301;DHT22;45073;52.740;6.784;2023-04-25T14:53:33;13.00;67.80
59301;DHT22;45073;52.740;6.784;2023-04-25T14:55:59;13.10;69.10
59301;DHT22;45073;52.740;6.784;2023-04-25T14:58:24;13.10;70.00
59301;DHT22;45073;52.740;6.784;2023-04-25T15:00:50;13.00;70.10
59301;DHT22;45073;52.740;6.784;2023-04-25T15:03:16;12.80;69.80
59301;DHT22;45073;52.740;6.784;2023-04-25T15:05:43;12.80;69.80
59301;DHT22;45073;52.740;6.784;2023-04-25T15:08:09;12.50;69.70
59301;DHT22;45073;52.740;6.784;2023-04-25T15:10:35;12.30;70.40
59301;DHT22;45073;52.740;6.784;2023-04-25T15:13:01;12.20;70.90
59301;DHT22;45073;52.740;6.784;2023-04-25T15:15:28;12.10;71.40
59301;DHT22;45073;52.740;6.784;2023-04-25T15:17:53;12.20;71.90
59301;DHT22;45073;52.740;6.784;2023-04-25T15:20:20;12.20;71.50
59301;DHT22;45073;52.740;6.784;2023-04-25T15:22:46;12.30;71.80
59301;DHT22;45073;52.740;6.784;2023-04-25T15:25:14;12.20;71.70
59301;DHT22;45073;52.740;6.784;2023-04-25T15:27:41;12.30;72.40
59301;DHT22;45073;52.740;6.784;2023-04-25T15:30:10;12.50;72.80
59301;DHT22;45073;52.740;6.784;2023-04-25T15:32:43;12.70;72.90
59301;DHT22;45073;52.740;6.784;2023-04-25T15:35:09;12.70;72.60
59301;DHT22;45073;52.740;6.784;2023-04-25T15:37:35;12.60;72.10
59301;DHT22;45073;52.740;6.784;2023-04-25T15:40:11;12.40;72.40
59301;DHT22;45073;52.740;6.784;2023-04-25T15:42:51;12.50;72.90
59301;DHT22;45073;52.740;6.784;2023-04-25T15:45:23;12.70;72.70
59301;DHT22;45073;52.740;6.784;2023-04-25T15:47:54;12.60;72.90
59301;DHT22;45073;52.740;6.784;2023-04-25T15:50:21;12.50;72.70
59301;DHT22;45073;52.740;6.784;2023-04-25T15:52:50;12.40;73.10
59301;DHT22;45073;52.740;6.784;2023-04-25T15:55:17;12.30;73.40
59301;DHT22;45073;52.740;6.784;2023-04-25T15:57:43;12.10;73.40
59301;DHT22;45073;52.740;6.784;2023-04-25T16:00:09;12.00;73.60
59301;DHT22;45073;52.740;6.784;2023-04-25T16:02:41;11.90;73.80
59301;DHT22;45073;52.740;6.784;2023-04-25T16:05:08;11.80;73.90
59301;DHT22;45073;52.740;6.784;2023-04-25T16:07:35;11.70;74.10
59301;DHT22;45073;52.740;6.784;2023-04-25T16:10:02;11.70;74.20
59301;DHT22;45073;52.740;6.784;2023-04-25T16:12:28;11.70;73.30
59301;DHT22;45073;52.740;6.784;2023-04-25T16:14:56;11.70;72.70
59301;DHT22;45073;52.740;6.784;2023-04-25T16:17:23;11.70;73.10
59301;DHT22;45073;52.740;6.784;2023-04-25T16:19:49;11.60;72.70
59301;DHT22;45073;52.740;6.784;2023-04-25T16:22:16;11.70;72.50
59301;DHT22;45073;52.740;6.784;2023-04-25T16:24:42;11.60;72.70
59301;DHT22;45073;52.740;6.784;2023-04-25T16:27:08;11.50;72.90
59301;DHT22;45073;52.740;6.784;2023-04-25T16:29:34;11.50;73.00
59301;DHT22;45073;52.740;6.784;2023-04-25T16:32:00;11.40;73.10
59301;DHT22;45073;52.740;6.784;2023-04-25T16:34:26;11.40;73.40
59301;DHT22;45073;52.740;6.784;2023-04-25T16:36:55;11.50;73.60
59301;DHT22;45073;52.740;6.784;2023-04-25T16:39:21;11.50;74.00
59301;DHT22;45073;52.740;6.784;2023-04-25T16:41:47;11.60;73.90
59301;DHT22;45073;52.740;6.784;2023-04-25T16:44:13;11.60;73.60
59301;DHT22;45073;52.740;6.784;2023-04-25T16:46:38;11.60;73.90
59301;DHT22;45073;52.740;6.784;2023-04-25T16:49:04;11.50;74.10
59301;DHT22;45073;52.740;6.784;2023-04-25T16:51:31;11.40;74.10
59301;DHT22;45073;52.740;6.784;2023-04-25T16:53:58;11.40;74.40